createdAt,value
2019-01-18T00:01:53.211Z,84.46
2019-01-18T00:04:23.683Z,84.44
2019-01-18T00:06:54.047Z,84.41
2019-01-18T00:09:24.428Z,84.42
2019-01-18T00:11:54.831Z,84.40
2019-01-18T00:14:25.208Z,84.45
2019-01-18T00:16:55.723Z,84.42
2019-01-18T00:19:26.095Z,84.43
2019-01-18T00:21:56.419Z,84.44
2019-01-18T00:24:26.924Z,84.48
2019-01-18T00:26:57.321Z,84.58
2019-01-18T00:29:29.702Z,84.65
2019-01-18T00:31:59.694Z,84.65
2019-01-18T00:34:29.938Z,84.52
2019-01-18T00:37:00.161Z,84.48
2019-01-18T00:39:30.392Z,84.44
2019-01-18T00:42:00.860Z,84.42
2019-01-18T00:44:31.184Z,84.54
2019-01-18T00:47:01.459Z,84.63
2019-01-18T00:49:31.708Z,84.66
2019-01-18T00:52:02.050Z,84.68
2019-01-18T00:54:32.319Z,84.75
2019-01-18T00:57:02.531Z,84.80
2019-01-18T00:59:36.326Z,84.85
2019-01-18T01:02:05.250Z,84.84
2019-01-18T01:04:35.646Z,84.82
2019-01-18T01:07:07.118Z,84.69
2019-01-18T01:09:37.597Z,84.68
2019-01-18T01:12:07.893Z,84.67
2019-01-18T01:14:38.303Z,84.59
2019-01-18T01:17:08.600Z,84.67
2019-01-18T01:19:38.977Z,84.64
2019-01-18T01:22:09.317Z,84.67
2019-01-18T01:24:39.895Z,84.75
2019-01-18T01:27:10.140Z,84.83
2019-01-18T01:29:43.123Z,84.93
2019-01-18T01:32:12.756Z,85.06
2019-01-18T01:34:43.213Z,85.02
2019-01-18T01:37:13.740Z,84.92
2019-01-18T01:39:44.238Z,84.87
2019-01-18T01:42:14.670Z,84.82
2019-01-18T01:44:45.250Z,84.83
2019-01-18T01:47:15.465Z,84.81
2019-01-18T01:49:46.474Z,84.86
2019-01-18T01:52:16.671Z,84.87
2019-01-18T01:54:47.543Z,84.83
2019-01-18T01:57:17.821Z,84.84
2019-01-18T01:59:49.997Z,84.83
2019-01-18T02:02:20.191Z,84.87
2019-01-18T02:04:50.338Z,84.91
2019-01-18T02:07:20.643Z,85.01
2019-01-18T02:09:50.771Z,84.98
2019-01-18T02:12:21.013Z,84.95
2019-01-18T02:14:51.412Z,85.00
2019-01-18T02:17:21.717Z,84.98
2019-01-18T02:19:52.169Z,84.92
2019-01-18T02:22:22.573Z,84.90
2019-01-18T02:24:52.928Z,84.78
2019-01-18T02:27:23.251Z,84.76
2019-01-18T02:29:56.718Z,84.70
2019-01-18T02:32:25.641Z,84.71
2019-01-18T02:34:56.019Z,84.68
2019-01-18T02:37:26.311Z,84.64
2019-01-18T02:39:56.535Z,84.72
2019-01-18T02:42:27.169Z,84.78
2019-01-18T02:44:57.547Z,84.83
2019-01-18T02:47:28.015Z,84.81
2019-01-18T02:49:58.439Z,84.78
2019-01-18T02:52:28.627Z,84.76
2019-01-18T02:54:58.736Z,84.72
2019-01-18T02:57:28.883Z,84.67
2019-01-18T03:00:04.634Z,84.70
2019-01-18T03:02:31.168Z,84.74
2019-01-18T03:05:01.329Z,84.71
2019-01-18T03:07:31.647Z,84.69
2019-01-18T03:10:01.964Z,84.73
2019-01-18T03:12:32.110Z,84.69
2019-01-18T03:15:02.319Z,84.69
2019-01-18T03:17:32.534Z,84.73
2019-01-18T03:20:02.895Z,84.67
2019-01-18T03:22:33.055Z,84.54
2019-01-18T03:25:03.305Z,84.57
2019-01-18T03:27:33.553Z,84.58
2019-01-18T03:30:17.134Z,84.59
2019-01-18T03:32:36.603Z,84.58
2019-01-18T03:35:07.951Z,84.51
2019-01-18T03:37:38.024Z,84.40
2019-01-18T03:40:10.014Z,84.37
2019-01-18T03:42:40.678Z,84.43
2019-01-18T03:45:14.116Z,84.38
2019-01-18T03:47:44.430Z,84.34
2019-01-18T03:50:21.249Z,84.34
2019-01-18T03:52:51.635Z,84.27
2019-01-18T03:55:21.928Z,84.34
2019-01-18T03:57:52.155Z,84.33
2019-01-18T04:00:28.255Z,84.31
2019-01-18T04:02:58.583Z,84.38
2019-01-18T04:05:28.938Z,84.38
2019-01-18T04:07:59.205Z,84.30
2019-01-18T04:10:29.411Z,84.34
2019-01-18T04:12:59.644Z,84.33
2019-01-18T04:15:29.799Z,84.32
2019-01-18T04:17:59.991Z,84.32
2019-01-18T04:20:30.311Z,84.37
2019-01-18T04:23:00.786Z,84.39
2019-01-18T04:25:33.077Z,84.38
2019-01-18T04:28:03.406Z,84.36
2019-01-18T04:30:33.894Z,84.29
2019-01-18T04:33:04.212Z,84.32
2019-01-18T04:35:34.471Z,84.31
2019-01-18T04:38:04.899Z,84.25
2019-01-18T04:40:35.162Z,84.23
2019-01-18T04:43:05.638Z,84.23
2019-01-18T04:45:36.173Z,84.21
2019-01-18T04:48:06.833Z,84.28
2019-01-18T04:50:37.343Z,84.26
2019-01-18T04:53:07.670Z,84.28
2019-01-18T04:55:38.062Z,84.29
2019-01-18T04:58:08.421Z,84.21
2019-01-18T05:00:41.082Z,84.18
2019-01-18T05:03:10.772Z,84.13
2019-01-18T05:05:45.864Z,84.16
2019-01-18T05:08:16.142Z,84.11
2019-01-18T05:10:46.492Z,84.01
2019-01-18T05:13:16.712Z,84.09
2019-01-18T05:15:46.967Z,84.12
2019-01-18T05:18:17.192Z,84.19
2019-01-18T05:20:47.488Z,84.17
2019-01-18T05:23:17.794Z,84.15
2019-01-18T05:25:48.101Z,84.13
2019-01-18T05:28:18.471Z,84.11
2019-01-18T05:30:48.680Z,84.15
2019-01-18T05:33:18.917Z,84.15
2019-01-18T05:35:49.497Z,84.16
2019-01-18T05:38:20.089Z,84.15
2019-01-18T05:40:50.418Z,84.17
2019-01-18T05:43:20.899Z,84.12
2019-01-18T05:45:51.232Z,84.04
2019-01-18T05:48:21.585Z,84.09
2019-01-18T05:50:51.972Z,84.12
2019-01-18T05:53:22.870Z,84.07
2019-01-18T05:55:53.130Z,84.03
2019-01-18T05:58:23.405Z,84.03
2019-01-18T06:00:57.936Z,84.05
2019-01-18T06:03:28.249Z,83.96
2019-01-18T06:05:58.597Z,83.01
2019-01-18T06:08:28.861Z,83.35
2019-01-18T06:10:59.305Z,83.45
2019-01-18T06:13:29.595Z,83.47
2019-01-18T06:16:00.042Z,83.55
2019-01-18T06:18:30.227Z,83.57
2019-01-18T06:21:00.525Z,83.45
2019-01-18T06:23:30.882Z,83.52
2019-01-18T06:26:01.275Z,83.49
2019-01-18T06:28:31.597Z,83.59
2019-01-18T06:31:02.059Z,83.57
2019-01-18T06:33:32.447Z,83.57
2019-01-18T06:36:02.814Z,83.56
2019-01-18T06:38:33.116Z,83.53
2019-01-18T06:41:20.814Z,83.53
2019-01-18T06:43:51.256Z,83.52
2019-01-18T06:46:21.573Z,83.36
2019-01-18T06:48:53.487Z,83.31
2019-01-18T06:51:23.793Z,83.26
2019-01-18T06:53:54.120Z,83.18
2019-01-18T06:56:24.370Z,83.08
2019-01-18T06:58:54.940Z,83.08
2019-01-18T07:01:25.334Z,83.02
2019-01-18T07:03:55.670Z,83.10
2019-01-18T07:06:25.986Z,83.08
2019-01-18T07:08:56.372Z,83.10
2019-01-18T07:11:26.718Z,83.10
2019-01-18T07:14:18.728Z,83.15
2019-01-18T07:16:49.434Z,83.10
2019-01-18T07:19:19.673Z,83.18
2019-01-18T07:21:49.920Z,83.16
2019-01-18T07:24:20.158Z,83.20
2019-01-18T07:26:50.313Z,83.21
2019-01-18T07:29:20.570Z,83.08
2019-01-18T07:31:50.905Z,82.96
2019-01-18T07:34:21.245Z,82.94
2019-01-18T07:36:51.497Z,82.92
2019-01-18T07:39:22.484Z,82.79
2019-01-18T07:41:52.824Z,82.80
2019-01-18T07:44:23.148Z,82.80
2019-01-18T07:46:53.471Z,82.71
2019-01-18T07:49:23.745Z,82.59
2019-01-18T07:51:54.105Z,82.56
2019-01-18T07:54:24.381Z,82.48
2019-01-18T07:56:54.607Z,82.43
2019-01-18T07:59:24.812Z,82.21
2019-01-18T08:01:55.057Z,82.30
2019-01-18T08:04:25.326Z,82.24
2019-01-18T08:06:55.635Z,82.38
2019-01-18T08:09:25.873Z,82.33
2019-01-18T08:11:56.033Z,82.18
2019-01-18T08:14:26.250Z,82.10
2019-01-18T08:16:56.449Z,82.01
2019-01-18T08:19:26.734Z,81.99
2019-01-18T08:21:56.896Z,82.00
2019-01-18T08:24:27.126Z,82.07
2019-01-18T08:26:57.372Z,81.96
2019-01-18T08:29:27.595Z,81.96
2019-01-18T08:31:57.739Z,81.97
2019-01-18T08:34:27.977Z,81.93
2019-01-18T08:36:58.231Z,81.89
2019-01-18T08:39:28.483Z,81.73
2019-01-18T08:41:58.855Z,81.66
2019-01-18T08:44:28.922Z,81.52
2019-01-18T08:46:59.151Z,81.47
2019-01-18T08:49:29.389Z,81.29
2019-01-18T08:51:59.623Z,81.15
2019-01-18T08:54:30.091Z,81.05
2019-01-18T08:57:00.322Z,80.95
2019-01-18T08:59:30.904Z,80.88
2019-01-18T09:02:01.143Z,80.70
2019-01-18T09:04:31.306Z,80.52
2019-01-18T09:07:01.451Z,80.36
2019-01-18T09:09:31.809Z,80.28
2019-01-18T09:12:02.028Z,80.09
2019-01-18T09:14:32.251Z,80.11
2019-01-18T09:17:02.590Z,80.18
2019-01-18T09:19:32.817Z,80.29
2019-01-18T09:22:02.986Z,80.25
2019-01-18T09:24:33.136Z,80.31
2019-01-18T09:27:03.350Z,80.33
2019-01-18T09:29:33.597Z,80.32
2019-01-18T09:32:03.906Z,80.37
2019-01-18T09:34:34.215Z,80.41
2019-01-18T09:37:04.457Z,80.37
2019-01-18T09:39:34.739Z,80.13
2019-01-18T09:42:05.032Z,79.81
2019-01-18T09:44:35.221Z,79.73
2019-01-18T09:47:05.527Z,79.79
2019-01-18T09:49:35.775Z,79.86
2019-01-18T09:52:06.762Z,80.00
2019-01-18T09:54:37.028Z,80.14
2019-01-18T09:57:07.356Z,80.30
2019-01-18T09:59:37.594Z,80.54
2019-01-18T10:02:07.838Z,80.73
2019-01-18T10:04:38.164Z,80.89
2019-01-18T10:07:09.291Z,81.03
2019-01-18T10:09:39.529Z,81.20
2019-01-18T10:12:09.685Z,81.30
2019-01-18T10:14:39.988Z,81.42
2019-01-18T10:17:10.223Z,81.55
2019-01-18T10:19:40.517Z,81.59
2019-01-18T10:22:10.961Z,81.39
2019-01-18T10:24:41.138Z,81.16
2019-01-18T10:27:11.938Z,80.96
2019-01-18T10:29:42.160Z,80.74
2019-01-18T10:32:12.427Z,80.49
2019-01-18T10:34:42.747Z,80.35
2019-01-18T10:37:13.084Z,80.13
2019-01-18T10:39:43.214Z,80.17
2019-01-18T10:42:13.459Z,80.18
2019-01-18T10:44:43.708Z,80.24
2019-01-18T10:47:14.006Z,80.23
2019-01-18T10:49:44.304Z,80.16
2019-01-18T10:52:14.527Z,79.90
2019-01-18T10:54:44.754Z,79.71
2019-01-18T10:57:14.988Z,79.50
2019-01-18T10:59:45.352Z,79.48
2019-01-18T11:02:15.625Z,79.35
2019-01-18T11:04:45.951Z,79.12
2019-01-18T11:07:16.166Z,79.27
2019-01-18T11:09:46.374Z,79.47
2019-01-18T11:12:16.814Z,79.73
2019-01-18T11:14:47.098Z,79.89
2019-01-18T11:17:17.374Z,79.98
2019-01-18T11:19:47.574Z,80.05
2019-01-18T11:22:17.724Z,80.09
2019-01-18T11:24:47.868Z,80.06
2019-01-18T11:27:18.167Z,80.05
2019-01-18T11:29:48.389Z,80.02
2019-01-18T11:32:18.578Z,80.02
2019-01-18T11:34:48.749Z,79.86
2019-01-18T11:37:18.958Z,79.79
2019-01-18T11:39:49.273Z,79.61
2019-01-18T11:42:19.500Z,79.59
2019-01-18T11:44:49.641Z,79.38
2019-01-18T11:47:19.991Z,79.05
2019-01-18T11:49:50.251Z,78.69
2019-01-18T11:52:20.493Z,78.48
2019-01-18T11:54:50.826Z,78.16
2019-01-18T11:57:21.165Z,78.12
2019-01-18T11:59:51.265Z,77.98
2019-01-18T12:02:22.211Z,77.74
2019-01-18T12:04:52.579Z,77.44
2019-01-18T12:07:22.807Z,77.45
2019-01-18T12:09:53.308Z,77.29
2019-01-18T12:12:23.626Z,77.21
2019-01-18T12:14:53.965Z,77.04
2019-01-18T12:17:24.138Z,76.99
2019-01-18T12:19:54.665Z,77.03
2019-01-18T12:22:25.041Z,76.92
2019-01-18T12:24:55.349Z,76.84
2019-01-18T12:27:25.482Z,76.84
2019-01-18T12:29:58.016Z,76.90
2019-01-18T12:32:28.889Z,76.68
2019-01-18T12:34:59.155Z,76.48
2019-01-18T12:37:30.389Z,76.43
2019-01-18T12:40:00.538Z,76.20
2019-01-18T12:42:30.766Z,75.80
2019-01-18T12:45:01.189Z,75.55
2019-01-18T12:47:31.636Z,75.10
2019-01-18T12:50:01.924Z,75.12
2019-01-18T12:52:32.203Z,74.68
2019-01-18T12:55:02.402Z,74.43
2019-01-18T12:57:32.724Z,73.99
2019-01-18T13:00:03.014Z,74.73
2019-01-18T13:02:35.473Z,75.28
2019-01-18T13:05:08.378Z,75.55
2019-01-18T13:07:38.605Z,75.97
2019-01-18T13:10:12.082Z,76.26
2019-01-18T13:12:41.165Z,76.55
2019-01-18T13:15:19.887Z,76.90
2019-01-18T13:17:50.121Z,77.02
2019-01-18T13:20:20.502Z,77.14
2019-01-18T13:22:50.697Z,76.56
2019-01-18T13:25:20.966Z,75.76
2019-01-18T13:27:51.262Z,75.18
2019-01-18T13:30:21.573Z,74.48
2019-01-18T13:32:51.847Z,74.04
2019-01-18T13:35:21.992Z,73.34
2019-01-18T13:37:54.462Z,73.03
2019-01-18T13:40:24.856Z,73.31
2019-01-18T13:42:55.479Z,73.71
2019-01-18T13:45:25.823Z,74.65
2019-01-18T13:47:56.137Z,75.15
2019-01-18T13:50:26.304Z,75.36
2019-01-18T13:52:56.629Z,75.35
2019-01-18T13:55:27.411Z,75.28
2019-01-18T13:57:57.742Z,75.14
2019-01-18T14:00:27.979Z,75.08
2019-01-18T14:02:58.232Z,75.09
2019-01-18T14:05:28.475Z,75.07
2019-01-18T14:07:58.632Z,75.08
2019-01-18T14:10:29.713Z,75.04
2019-01-18T14:12:59.916Z,75.06
2019-01-18T14:15:30.169Z,74.99
2019-01-18T14:18:00.524Z,74.94
2019-01-18T14:20:30.813Z,74.83
2019-01-18T14:23:01.667Z,74.75
2019-01-18T14:25:31.884Z,74.74
2019-01-18T14:28:02.674Z,74.69
2019-01-18T14:30:35.760Z,74.60
2019-01-18T14:33:05.119Z,74.35
2019-01-18T14:35:35.375Z,74.09
2019-01-18T14:38:06.977Z,73.95
2019-01-18T14:40:37.294Z,73.85
2019-01-18T14:43:07.625Z,73.73
2019-01-18T14:45:41.069Z,73.64
2019-01-18T14:48:11.355Z,73.49
2019-01-18T14:50:41.650Z,73.55
2019-01-18T14:53:11.874Z,73.76
2019-01-18T14:55:42.108Z,74.09
2019-01-18T14:58:14.006Z,74.49
2019-01-18T15:00:44.387Z,74.80
2019-01-18T15:03:16.069Z,75.08
2019-01-18T15:05:46.328Z,75.29
2019-01-18T15:08:16.642Z,75.48
2019-01-18T15:10:46.905Z,75.70
2019-01-18T15:13:19.375Z,75.87
2019-01-18T15:15:49.741Z,76.03
2019-01-18T15:18:21.846Z,76.17
2019-01-18T15:20:52.262Z,76.34
2019-01-18T15:23:22.488Z,76.53
2019-01-18T15:25:52.731Z,76.64
2019-01-18T15:28:23.007Z,76.73
2019-01-18T15:30:53.283Z,76.85
2019-01-18T15:33:23.512Z,76.96
2019-01-18T15:35:54.625Z,77.08
2019-01-18T15:38:24.846Z,77.16
2019-01-18T15:40:55.143Z,77.21
2019-01-18T15:43:25.373Z,77.25
2019-01-18T15:45:55.618Z,77.24
2019-01-18T15:48:25.873Z,77.26
2019-01-18T15:50:56.219Z,77.30
2019-01-18T15:53:26.544Z,77.39
2019-01-18T15:55:56.884Z,77.59
2019-01-18T15:58:27.270Z,77.77
2019-01-18T16:00:57.500Z,77.81
2019-01-18T16:03:27.818Z,77.95
2019-01-18T16:05:58.094Z,78.06
2019-01-18T16:08:28.360Z,78.14
2019-01-18T16:10:58.612Z,78.22
2019-01-18T16:13:29.721Z,78.35
2019-01-18T16:16:29.075Z,78.37
2019-01-18T16:18:59.832Z,78.48
2019-01-18T16:24:01.520Z,78.67
2019-01-18T16:26:32.044Z,78.69
2019-01-18T16:29:02.755Z,78.79
2019-01-18T16:31:38.029Z,78.85
2019-01-18T16:34:08.503Z,78.90
2019-01-18T16:36:39.063Z,78.98
2019-01-18T16:39:11.353Z,78.99
2019-01-18T16:41:42.176Z,78.98
2019-01-18T16:44:13.190Z,78.97
2019-01-18T16:46:43.756Z,79.03
2019-01-18T16:49:14.290Z,78.92
2019-01-18T16:51:44.882Z,78.82
2019-01-18T16:54:15.257Z,78.75
2019-01-18T16:56:45.884Z,78.70
2019-01-18T16:59:16.542Z,78.68
2019-01-18T17:01:47.142Z,78.63
2019-01-18T17:04:17.729Z,78.61
2019-01-18T17:06:48.380Z,78.63
2019-01-18T17:09:18.930Z,78.69
2019-01-18T17:11:49.568Z,78.68
2019-01-18T17:14:20.136Z,78.62
2019-01-18T17:16:50.604Z,78.62
2019-01-18T17:19:21.257Z,78.61
2019-01-18T17:21:51.849Z,78.61
2019-01-18T17:24:22.512Z,78.61
2019-01-18T17:26:52.945Z,78.60
2019-01-18T17:29:23.482Z,78.65
2019-01-18T17:31:54.055Z,78.62
2019-01-18T17:34:24.627Z,78.58
2019-01-18T17:37:30.160Z,78.57
2019-01-18T17:40:40.327Z,78.53
2019-01-18T17:44:08.514Z,78.55
2019-01-18T17:47:14.149Z,78.57
2019-01-18T17:50:15.399Z,78.62
2019-01-18T17:53:19.522Z,78.71
2019-01-18T17:57:07.169Z,78.70
2019-01-18T18:00:46.318Z,78.78
2019-01-18T18:04:05.794Z,78.92
2019-01-18T18:07:16.776Z,79.09
2019-01-18T18:10:28.225Z,79.22
2019-01-18T18:13:43.587Z,79.39
2019-01-18T18:16:54.604Z,79.48
2019-01-18T18:20:24.622Z,79.59
2019-01-18T18:23:08.159Z,79.65
2019-01-18T18:26:06.705Z,79.70
2019-01-18T18:30:06.995Z,79.74
2019-01-18T18:34:00.399Z,79.79
2019-01-18T18:37:41.000Z,79.92
2019-01-18T18:40:39.428Z,79.99
2019-01-18T18:44:09.766Z,80.11
2019-01-18T18:47:19.600Z,80.11
2019-01-18T18:50:58.688Z,80.26
2019-01-18T18:53:54.695Z,80.24
2019-01-18T18:57:33.383Z,80.34
2019-01-18T19:00:41.200Z,80.33
2019-01-18T19:04:04.729Z,80.41
2019-01-18T19:07:21.111Z,80.48
2019-01-18T19:11:09.103Z,80.49
2019-01-18T19:14:50.352Z,80.57
2019-01-18T19:20:59.517Z,80.65
2019-01-18T19:23:52.922Z,80.67
2019-01-18T19:27:30.518Z,80.65
2019-01-18T19:31:07.411Z,80.76
2019-01-18T19:33:53.930Z,80.76
2019-01-18T19:37:43.633Z,80.82
2019-01-18T19:41:09.766Z,80.75
2019-01-18T19:44:13.831Z,80.81
2019-01-18T19:47:38.947Z,80.87
2019-01-18T19:51:16.451Z,80.86
2019-01-18T19:54:21.017Z,80.84
2019-01-18T19:57:49.505Z,80.94
2019-01-18T20:01:20.784Z,80.97
2019-01-18T20:05:10.637Z,80.92
2019-01-18T20:08:24.771Z,80.91
2019-01-18T20:11:37.108Z,81.08
2019-01-18T20:15:14.269Z,81.15
2019-01-18T20:18:31.188Z,81.23
2019-01-18T20:21:37.406Z,81.29
2019-01-18T20:25:24.776Z,81.42
2019-01-18T20:28:51.067Z,81.42
2019-01-18T20:32:16.722Z,81.46
2019-01-18T20:35:44.538Z,81.45
2019-01-18T20:39:11.248Z,81.39
2019-01-18T20:42:40.220Z,81.42
2019-01-18T20:45:49.003Z,81.48
2019-01-18T20:49:08.728Z,81.44
2019-01-18T20:52:15.265Z,81.41
2019-01-18T20:55:44.953Z,81.45
2019-01-18T20:58:56.896Z,81.40
2019-01-18T21:02:25.948Z,81.34
2019-01-18T21:05:30.662Z,81.34
2019-01-18T21:09:13.163Z,81.35
2019-01-18T21:12:12.968Z,81.30
2019-01-18T21:15:38.979Z,81.29
2019-01-18T21:18:43.196Z,81.31
2019-01-18T21:22:19.279Z,81.30
2019-01-18T21:25:36.802Z,81.30
2019-01-18T21:28:59.693Z,81.33
2019-01-18T21:32:33.994Z,81.37
2019-01-18T21:36:19.920Z,81.35
2019-01-18T21:39:30.082Z,81.38
2019-01-18T21:42:51.213Z,81.40
2019-01-18T21:46:02.553Z,81.32
2019-01-18T21:49:52.296Z,81.30
2019-01-18T21:53:19.203Z,81.25
2019-01-18T21:56:30.001Z,81.32
2019-01-18T21:59:26.089Z,81.27
2019-01-18T22:02:54.623Z,81.27
2019-01-18T22:06:28.214Z,81.26
2019-01-18T22:09:19.294Z,81.14
2019-01-18T22:12:59.356Z,81.11
2019-01-18T22:16:12.388Z,81.11
2019-01-18T22:19:52.424Z,81.12
2019-01-18T22:23:16.310Z,81.16
2019-01-18T22:27:00.900Z,81.09
2019-01-18T22:30:17.282Z,81.11
2019-01-18T22:33:30.283Z,81.14
2019-01-18T22:36:52.648Z,81.15
2019-01-18T22:40:09.603Z,81.10
2019-01-18T22:42:57.589Z,81.16
2019-01-18T22:46:24.517Z,81.11
2019-01-18T22:49:44.977Z,81.12
2019-01-18T22:53:44.646Z,81.14
2019-01-18T22:56:47.147Z,81.16
2019-01-18T23:00:06.492Z,81.22
2019-01-18T23:03:43.417Z,81.27
2019-01-18T23:06:53.816Z,81.22
2019-01-18T23:10:05.731Z,81.20
2019-01-18T23:13:11.115Z,81.18
2019-01-18T23:17:10.501Z,81.14
2019-01-18T23:20:50.136Z,81.18
2019-01-18T23:24:14.160Z,81.26
2019-01-18T23:27:32.227Z,81.28
2019-01-18T23:30:21.891Z,81.25
2019-01-18T23:33:42.943Z,81.31
2019-01-18T23:36:24.278Z,81.35
2019-01-18T23:40:20.979Z,81.34
2019-01-18T23:43:29.187Z,81.31
2019-01-18T23:46:40.563Z,81.39
2019-01-18T23:49:43.017Z,81.43
2019-01-18T23:53:15.473Z,81.42
2019-01-18T23:56:32.362Z,81.42
2019-01-18T23:59:45.175Z,81.53
